Aviation Digital Data Service (ADDS)

Output produced by METARs form (1120 UTC 20 October 2014)
found at http://aviationweather.gov/adds/metars/
 
KSAN 201005Z 2010/2112 VRB04KT P6SM BKN015 
     FM201800 29009KT P6SM SCT020 
     FM210100 VRB05KT P6SM BKN018